Madeline — WDE3220 — position and weather

sailwx.info

Track history (hours):
 
Tides and Currents Weather Stations Pressure Air Temp Water Temp Dewpoint Dewpoint Depression Visibility Wind Speed Wind Dir Waves Ship Positions

Madeline

Owner: TUG MADELINE, LLC, NEW CASTLE, DE. More information available from US FCC via Universal Licensing System and Coast Guard Vessel Documentation Center.

Last reported at 2018-Apr-21 04:00 UTC. Time now 2018-Apr-21 04:10 UTC.
Position N 39°53' W 075°11'.

Length 23 m; draft 4.6 m.

Type: Tug. MMSI: 367335830.

Date/timePositionNaut miles runAvg speedWind from/ knotsBaromVisibWave heightAir tempDewpointWater temp
2018-Apr-21 04:00N 39°53' W 075°11'0 0.0
2018-Apr-21 03:31N 39°53' W 075°11'0 0.0
2018-Apr-21 03:00N 39°53' W 075°11'0 0.0
2018-Apr-21 02:31N 39°53' W 075°11'0 0.0
2018-Apr-21 02:01N 39°53' W 075°11'0 0.0
2018-Apr-21 01:30N 39°53' W 075°11'3 5.4
2018-Apr-21 01:01N 39°52' W 075°14'2 3.0
2018-Apr-21 00:31N 39°52' W 075°12'1 2.3
2018-Apr-21 00:01N 39°53' W 075°11'0 0.0
2018-Apr-20 23:31N 39°53' W 075°11'0 0.0
2018-Apr-20 23:01N 39°53' W 075°11'0 0.0
2018-Apr-20 22:30N 39°53' W 075°11'0 0.0
2018-Apr-20 22:00N 39°53' W 075°11'0 0.0
2018-Apr-20 21:31N 39°53' W 075°11'0 0.0
2018-Apr-20 21:00N 39°53' W 075°11'0 0.0
2018-Apr-20 20:30N 39°53' W 075°11'0 0.0
2018-Apr-20 20:00N 39°53' W 075°11'0 0.0
2018-Apr-20 19:31N 39°53' W 075°11'0 0.0
2018-Apr-20 19:00N 39°53' W 075°11'0 0.0
2018-Apr-20 18:30N 39°53' W 075°11'0 0.0
2018-Apr-20 18:01N 39°53' W 075°11'0 0.0
2018-Apr-20 17:31N 39°53' W 075°11'0 0.0
2018-Apr-20 17:00N 39°53' W 075°11'0 0.0
2018-Apr-20 16:30N 39°53' W 075°11'0 0.0
2018-Apr-20 16:00N 39°53' W 075°11'1 1.1
2018-Apr-20 15:30N 39°53' W 075°12'0 0.0
2018-Apr-20 15:00N 39°53' W 075°12'0 0.0
2018-Apr-20 14:30N 39°53' W 075°12'0 0.0
2018-Apr-20 14:00N 39°53' W 075°12'3 5.2
2018-Apr-20 13:30N 39°52' W 075°14'1 3.0
2018-Apr-20 13:00N 39°51' W 075°16'0 0.0
2018-Apr-20 12:30N 39°51' W 075°16'0 0.0
2018-Apr-20 11:59N 39°51' W 075°16'0 0.0
2018-Apr-20 11:30N 39°51' W 075°16'0 0.0
2018-Apr-20 10:58N 39°51' W 075°16'0 0.0
2018-Apr-20 10:30N 39°51' W 075°16'0 0.0
2018-Apr-20 10:00N 39°51' W 075°16'0 0.0
2018-Apr-20 09:30N 39°51' W 075°16'1 1.1
2018-Apr-20 08:59N 39°51' W 075°15'1 1.2
2018-Apr-20 08:30N 39°51' W 075°16'0 0.0
2018-Apr-20 08:00N 39°51' W 075°16'2 3.4
2018-Apr-20 07:31N 39°51' W 075°14'3 5.2
2018-Apr-20 07:00N 39°53' W 075°11'0 0.0
2018-Apr-20 06:30N 39°53' W 075°11'0 0.0
2018-Apr-20 06:00N 39°53' W 075°11'0 0.0
2018-Apr-20 05:30N 39°53' W 075°11'0 0.0
2018-Apr-20 05:00N 39°53' W 075°11'0 0.0
2018-Apr-20 04:30N 39°53' W 075°11'0 0.0
2018-Apr-20 04:00N 39°53' W 075°11'0 0.0
2018-Apr-20 03:30N 39°53' W 075°11'0 0.0
2018-Apr-20 03:01N 39°53' W 075°11'0 0.0
2018-Apr-20 02:31N 39°53' W 075°11'0 0.0
2018-Apr-20 02:00N 39°53' W 075°11'0 0.0
2018-Apr-20 01:31N 39°53' W 075°11'0 0.0
2018-Apr-20 01:00N 39°53' W 075°11'0 0.0
2018-Apr-20 00:31N 39°53' W 075°11'0 0.0
2018-Apr-20 00:00N 39°53' W 075°11'0 0.0
2018-Apr-19 23:19N 39°53' W 075°11'0 0.0
2018-Apr-19 23:00N 39°53' W 075°11'0 0.0
2018-Apr-19 22:30N 39°53' W 075°11'0 0.0
2018-Apr-19 22:00N 39°53' W 075°11'2 3.0
2018-Apr-19 21:30N 39°52' W 075°13'0 0.9
2018-Apr-19 21:01N 39°52' W 075°13'0 0.0
2018-Apr-19 20:30N 39°52' W 075°13'0 0.0
2018-Apr-19 20:00N 39°52' W 075°13'0 0.5
2018-Apr-19 19:30N 39°52' W 075°13'2 3.9
2018-Apr-19 19:00N 39°51' W 075°15'2 4.0
2018-Apr-19 18:30N 39°52' W 075°13'2 3.4
2018-Apr-19 18:00N 39°53' W 075°11'0 0.1
2018-Apr-19 17:31N 39°53' W 075°11'0 0.0
2018-Apr-19 17:01N 39°53' W 075°11'0 0.0
2018-Apr-19 16:30N 39°53' W 075°11'0 0.1
2018-Apr-19 16:00N 39°53' W 075°11'0 0.0
2018-Apr-19 15:30N 39°53' W 075°11'0 0.0
2018-Apr-19 15:00N 39°53' W 075°11'0 0.0
2018-Apr-19 14:30N 39°53' W 075°11'0 0.0
2018-Apr-19 14:00N 39°53' W 075°11'0 0.0
2018-Apr-19 13:30N 39°53' W 075°11'0 0.0
2018-Apr-19 13:00N 39°53' W 075°11'0 0.0
2018-Apr-19 12:30N 39°53' W 075°11'0 0.0
2018-Apr-19 12:00N 39°53' W 075°11'0 0.0
2018-Apr-19 11:30N 39°53' W 075°11'0 0.0
2018-Apr-19 11:00N 39°53' W 075°11'1 2.2
2018-Apr-19 10:30N 39°53' W 075°10'2 3.4
2018-Apr-19 10:01N 39°54' W 075°08'0 0.0
2018-Apr-19 09:30N 39°54' W 075°08'0 0.8
2018-Apr-19 09:01N 39°54' W 075°08'0 0.8
2018-Apr-19 08:30N 39°55' W 075°08'1 1.4
2018-Apr-19 08:00N 39°54' W 075°08'0 0.0
2018-Apr-19 07:30N 39°54' W 075°08'2 3.7
2018-Apr-19 07:01N 39°53' W 075°10'510.7
2018-Apr-19 06:30N 39°51' W 075°16'3 6.5
2018-Apr-19 06:01N 39°51' W 075°20'1 1.8
2018-Apr-19 05:30N 39°51' W 075°19'3 5.3
2018-Apr-19 05:00N 39°51' W 075°16'0 0.0
2018-Apr-19 04:30N 39°51' W 075°16'0 0.0
2018-Apr-19 04:00N 39°51' W 075°16'0 0.0
2018-Apr-19 03:30N 39°51' W 075°16'0 0.0
2018-Apr-19 03:00N 39°51' W 075°16'0 0.0
2018-Apr-19 02:31N 39°51' W 075°16'0 0.0
2018-Apr-19 02:00N 39°51' W 075°16'0 0.0
2018-Apr-19 01:30N 39°51' W 075°16'0 0.0
2018-Apr-19 01:00N 39°51' W 075°16'0 0.0
2018-Apr-19 00:30N 39°51' W 075°16'0 0.0
2018-Apr-19 00:01N 39°51' W 075°16'0 0.0
2018-Apr-18 23:31N 39°51' W 075°16'0 0.0
2018-Apr-18 23:00N 39°51' W 075°16'1 2.7
2018-Apr-18 22:30N 39°51' W 075°17'4 7.3
2018-Apr-18 22:01N 39°52' W 075°13'3 5.6
2018-Apr-18 21:31N 39°53' W 075°09'0 0.0
2018-Apr-18 21:00N 39°53' W 075°10'1 1.5
2018-Apr-18 20:31N 39°53' W 075°10'1 2.0
2018-Apr-18 20:00N 39°53' W 075°12'1 1.1
2018-Apr-18 19:30N 39°54' W 075°12'0 0.6
2018-Apr-18 19:01N 39°54' W 075°12'1 1.9
2018-Apr-18 18:30N 39°53' W 075°12'1 2.6
2018-Apr-18 18:00N 39°52' W 075°13'612.2
2018-Apr-18 17:30N 39°51' W 075°21'713.5
2018-Apr-18 17:00N 39°47' W 075°28'4 8.9
2018-Apr-18 16:30N 39°43' W 075°31'0 0.0
2018-Apr-18 16:00N 39°43' W 075°31'0 0.0
2018-Apr-18 15:30N 39°43' W 075°31'0 0.3
2018-Apr-18 15:01N 39°43' W 075°31'0 0.7
2018-Apr-18 14:30N 39°43' W 075°31'1 2.3
2018-Apr-18 14:00N 39°42' W 075°31'0 0.2
2018-Apr-18 13:30N 39°42' W 075°31'1 2.3
2018-Apr-18 13:00N 39°43' W 075°31'0 0.0
2018-Apr-18 12:30N 39°43' W 075°31'0 0.0
2018-Apr-18 12:00N 39°43' W 075°31'0 0.0
2018-Apr-18 11:30N 39°43' W 075°31'0 0.0
2018-Apr-18 11:00N 39°43' W 075°31'0 0.0
2018-Apr-18 10:30N 39°43' W 075°31'0 0.0
2018-Apr-18 10:00N 39°43' W 075°31'4 8.8
2018-Apr-18 09:30N 39°39' W 075°34'4 8.6
2018-Apr-18 09:00N 39°35' W 075°35'0 0.1
2018-Apr-18 08:30N 39°35' W 075°35'0 0.0
2018-Apr-18 08:00N 39°35' W 075°35'0 0.0
2018-Apr-18 07:30N 39°35' W 075°35'1 2.7
2018-Apr-18 07:00N 39°34' W 075°34'1 1.2
2018-Apr-18 06:30N 39°34' W 075°33'0 0.3
2018-Apr-18 06:01N 39°34' W 075°33'2 3.7
2018-Apr-18 05:30N 39°35' W 075°35'0 0.0
2018-Apr-18 05:00N 39°35' W 075°35'0 0.0
2018-Apr-18 04:30N 39°35' W 075°35'0 0.0
2018-Apr-18 04:00N 39°35' W 075°35'0 0.0
2018-Apr-18 03:30N 39°35' W 075°35'0 0.0
2018-Apr-18 03:00N 39°35' W 075°35'0 0.0
2018-Apr-18 02:30N 39°35' W 075°35'0 0.0
2018-Apr-18 02:00N 39°35' W 075°35'1 2.0
2018-Apr-18 01:31N 39°34' W 075°34'1 2.0
2018-Apr-18 01:00N 39°35' W 075°35'0 0.0
2018-Apr-18 00:30N 39°35' W 075°35'0 0.7
2018-Apr-18 00:00N 39°35' W 075°35'5 9.6
2018-Apr-17 23:30N 39°30' W 075°33'510.2
2018-Apr-17 23:00N 39°25' W 075°31'510.0
2018-Apr-17 22:30N 39°22' W 075°27'510.5
2018-Apr-17 22:00N 39°18' W 075°22'510.4
2018-Apr-17 21:31N 39°14' W 075°18'510.6
2018-Apr-17 21:00N 39°09' W 075°15'6 1.1
2018-Apr-17 15:25N 39°03' W 075°14'5 8.0
2018-Apr-17 14:46N 39°08' W 075°14'3 9.5
2018-Apr-17 14:27N 39°11' W 075°16'4 8.6
2018-Apr-17 14:00N 39°14' W 075°19'5 9.5
2018-Apr-17 13:30N 39°18' W 075°22'510.5
2018-Apr-17 13:00N 39°22' W 075°27'611.4
2018-Apr-17 12:30N 39°26' W 075°32'510.8
2018-Apr-17 12:00N 39°31' W 075°33'612.0
2018-Apr-17 11:30N 39°37' W 075°35'511.1
2018-Apr-17 11:00N 39°42' W 075°31'915.9
2018-Apr-17 10:28N 39°49' W 075°24'511.4
2018-Apr-17 10:00N 39°51' W 075°18'1 2.5
2018-Apr-17 09:29N 39°51' W 075°16'0 0.0
2018-Apr-17 08:57N 39°51' W 075°16'0 1.0
2018-Apr-17 08:30N 39°51' W 075°17'2 4.1
2018-Apr-17 08:00N 39°51' W 075°19'2 4.9
2018-Apr-17 07:29N 39°51' W 075°16'0 0.0
2018-Apr-17 07:01N 39°51' W 075°16'0 0.1
2018-Apr-17 06:28N 39°51' W 075°16'0 0.1
2018-Apr-17 06:00N 39°51' W 075°16'3 5.4
2018-Apr-17 05:30N 39°52' W 075°13'2 3.8
2018-Apr-17 05:01N 39°53' W 075°11'0 0.0
2018-Apr-17 04:31N 39°53' W 075°11'0 0.0
2018-Apr-17 03:57N 39°53' W 075°11'0 0.0
2018-Apr-17 03:30N 39°53' W 075°11'0 0.0
2018-Apr-17 03:00N 39°53' W 075°11'0 0.0
2018-Apr-17 02:30N 39°53' W 075°11'0 0.0
2018-Apr-17 02:00N 39°53' W 075°11'0 0.0
2018-Apr-17 01:30N 39°53' W 075°11'0 0.0
2018-Apr-17 01:00N 39°53' W 075°11'0 0.0
2018-Apr-17 00:30N 39°53' W 075°11'0 0.0
2018-Apr-17 00:00N 39°53' W 075°11'0 0.0
2018-Apr-16 23:31N 39°53' W 075°11'0 0.0
2018-Apr-16 23:00N 39°53' W 075°11'0 0.0
2018-Apr-16 22:30N 39°53' W 075°11'0 0.0
2018-Apr-16 22:00N 39°53' W 075°11'0 0.0
2018-Apr-16 21:30N 39°53' W 075°11'0 0.0
2018-Apr-16 21:00N 39°53' W 075°11'1 2.2
2018-Apr-16 20:31N 39°54' W 075°12'0 0.0
2018-Apr-16 20:00N 39°54' W 075°12'1 2.2
2018-Apr-16 19:30N 39°53' W 075°12'0 0.5
2018-Apr-16 19:00N 39°53' W 075°12'1 1.7
2018-Apr-16 18:30N 39°53' W 075°12'0 0.9
2018-Apr-16 18:00N 39°53' W 075°11'0 0.0
2018-Apr-16 17:30N 39°53' W 075°11'0 0.0
2018-Apr-16 17:00N 39°53' W 075°11'0 0.0
2018-Apr-16 16:31N 39°53' W 075°11'0 0.0
2018-Apr-16 16:01N 39°53' W 075°11'0 0.0
2018-Apr-16 15:30N 39°53' W 075°11'0 0.0
2018-Apr-16 15:01N 39°53' W 075°11'0 0.0
2018-Apr-16 14:30N 39°53' W 075°11'0 0.0
2018-Apr-16 14:00N 39°53' W 075°11'0 0.0
2018-Apr-16 13:31N 39°53' W 075°11'4 7.5
2018-Apr-16 13:00N 39°56' W 075°08'3 6.8
2018-Apr-16 12:30N 39°59' W 075°05'0 0.4
2018-Apr-16 12:00N 39°59' W 075°05'1 2.3
2018-Apr-16 11:30N 39°58' W 075°06'3 6.5
2018-Apr-16 11:00N 39°56' W 075°08'3 6.4
2018-Apr-16 10:31N 39°53' W 075°10'5 9.5
2018-Apr-16 10:00N 39°51' W 075°16'0 0.1
2018-Apr-16 09:30N 39°51' W 075°16'0 0.0
2018-Apr-16 09:00N 39°51' W 075°16'0 0.2
2018-Apr-16 08:30N 39°51' W 075°16'1 2.6
2018-Apr-16 08:00N 39°51' W 075°18'1 1.7
2018-Apr-16 07:30N 39°51' W 075°19'2 4.8
2018-Apr-16 07:01N 39°51' W 075°16'4 7.5
2018-Apr-16 06:30N 39°53' W 075°12'1 1.1
2018-Apr-16 06:00N 39°53' W 075°11'0 0.0
2018-Apr-16 05:30N 39°53' W 075°11'0 0.0
2018-Apr-16 05:00N 39°53' W 075°11'0 0.0
2018-Apr-16 04:30N 39°53' W 075°11'0 0.0
2018-Apr-16 04:00N 39°53' W 075°11'0 0.0
2018-Apr-16 03:30N 39°53' W 075°11'0 0.0
2018-Apr-16 03:00N 39°53' W 075°11'0 0.0
2018-Apr-16 02:30N 39°53' W 075°11'0 0.0
2018-Apr-16 02:00N 39°53' W 075°11'0 0.0
2018-Apr-16 01:30N 39°53' W 075°11'0 0.0
2018-Apr-16 00:59N 39°53' W 075°11'0 0.0
2018-Apr-16 00:30N 39°53' W 075°11'0 0.0
2018-Apr-16 00:00N 39°53' W 075°11'0 0.0
2018-Apr-15 23:30N 39°53' W 075°11'0 0.0
2018-Apr-15 23:00N 39°53' W 075°11'0 0.0
2018-Apr-15 22:30N 39°53' W 075°11'3 5.8
2018-Apr-15 22:00N 39°55' W 075°08'3 6.6
2018-Apr-15 21:30N 39°58' W 075°07'4 7.6
2018-Apr-15 21:00N 39°54' W 075°08'3 5.2
2018-Apr-15 20:30N 39°53' W 075°11'0 0.0
2018-Apr-15 20:00N 39°53' W 075°11'0 0.0
2018-Apr-15 19:30N 39°53' W 075°11'0 0.0
2018-Apr-15 19:00N 39°53' W 075°11'0 0.0
2018-Apr-15 18:30N 39°53' W 075°11'0 0.0
2018-Apr-15 18:01N 39°53' W 075°11'0 0.0
2018-Apr-15 17:30N 39°53' W 075°11'0 0.0
2018-Apr-15 17:00N 39°53' W 075°11'0 0.0
2018-Apr-15 16:30N 39°53' W 075°11'0 0.0
2018-Apr-15 16:00N 39°53' W 075°11'0 0.0
2018-Apr-15 15:30N 39°53' W 075°11'0 0.0
2018-Apr-15 15:00N 39°53' W 075°11'0 0.0
2018-Apr-15 14:30N 39°53' W 075°11'0 0.0
2018-Apr-15 14:00N 39°53' W 075°11'0 0.0
2018-Apr-15 13:30N 39°53' W 075°11'0 0.0
2018-Apr-15 13:00N 39°53' W 075°11'0 0.0
2018-Apr-15 12:29N 39°53' W 075°11'0 0.0
2018-Apr-15 12:00N 39°53' W 075°11'0 0.0
2018-Apr-15 11:31N 39°53' W 075°11'0 0.0
2018-Apr-15 11:01N 39°53' W 075°11'0 0.0
2018-Apr-15 10:31N 39°53' W 075°11'0 0.0
2018-Apr-15 10:00N 39°53' W 075°11'0 0.0
2018-Apr-15 09:30N 39°53' W 075°11'0 0.0
2018-Apr-15 09:00N 39°53' W 075°11'2 4.7
2018-Apr-15 08:30N 39°54' W 075°08'510.1
2018-Apr-15 08:00N 39°58' W 075°06'1 1.2
2018-Apr-15 07:30N 39°59' W 075°05'1 1.1
2018-Apr-15 07:00N 39°59' W 075°06'0 0.4
2018-Apr-15 06:31N 39°59' W 075°06'1 1.5
2018-Apr-15 06:00N 39°59' W 075°05'0 0.0
2018-Apr-15 05:30N 39°59' W 075°05'0 0.0
2018-Apr-15 05:00N 39°59' W 075°05'0 0.0
2018-Apr-15 04:30N 39°59' W 075°05'0 0.0
2018-Apr-15 04:00N 39°59' W 075°05'0 0.0
2018-Apr-15 03:30N 39°59' W 075°05'0 0.0
2018-Apr-15 03:01N 39°59' W 075°05'4 8.2
2018-Apr-15 02:30N 39°55' W 075°08'5 9.3
2018-Apr-15 02:00N 39°52' W 075°13'3 6.4
2018-Apr-15 01:30N 39°51' W 075°16'0 0.2
2018-Apr-15 01:00N 39°51' W 075°16'0 0.7
2018-Apr-15 00:30N 39°51' W 075°16'0 0.0
2018-Apr-15 00:01N 39°51' W 075°16'0 0.0
2018-Apr-14 23:31N 39°51' W 075°16'0 0.0
2018-Apr-14 23:00N 39°51' W 075°16'0 0.0
2018-Apr-14 22:30N 39°51' W 075°16'0 0.0
2018-Apr-14 22:00N 39°51' W 075°16'0 0.0
2018-Apr-14 21:30N 39°51' W 075°16'0 0.0
2018-Apr-14 20:59N 39°51' W 075°16'0 0.0
2018-Apr-14 20:30N 39°51' W 075°16'0 0.0
2018-Apr-14 20:00N 39°51' W 075°16'0 0.0
2018-Apr-14 19:30N 39°51' W 075°16'0 0.0
2018-Apr-14 19:00N 39°51' W 075°16'0 0.0
2018-Apr-14 18:30N 39°51' W 075°16'0 0.0
2018-Apr-14 18:00N 39°51' W 075°16'0 0.0
2018-Apr-14 17:30N 39°51' W 075°16'0 0.0
2018-Apr-14 17:00N 39°51' W 075°16'0 0.0
2018-Apr-14 16:30N 39°51' W 075°16'0 0.0
2018-Apr-14 16:00N 39°51' W 075°16'0 0.0
2018-Apr-14 15:30N 39°51' W 075°16'0 0.0
2018-Apr-14 15:00N 39°51' W 075°16'0 0.0
2018-Apr-14 14:30N 39°51' W 075°16'0 0.0
2018-Apr-14 14:00N 39°51' W 075°16'0 0.0
2018-Apr-14 13:30N 39°51' W 075°16'0 0.0
2018-Apr-14 13:00N 39°51' W 075°16'0 0.0
2018-Apr-14 12:30N 39°51' W 075°16'0 0.0
2018-Apr-14 12:00N 39°51' W 075°16'0 0.0
2018-Apr-14 11:30N 39°51' W 075°16'0 0.0
2018-Apr-14 11:00N 39°51' W 075°16'0 0.0
2018-Apr-14 10:30N 39°51' W 075°16'0 0.0
2018-Apr-14 10:00N 39°51' W 075°16'0 0.0
2018-Apr-14 09:30N 39°51' W 075°16'0 0.0
2018-Apr-14 09:01N 39°51' W 075°16'0 0.4
2018-Apr-14 08:30N 39°51' W 075°16'0 0.1
2018-Apr-14 08:01N 39°51' W 075°16'2 3.2
2018-Apr-14 07:30N 39°52' W 075°14'1 2.3
2018-Apr-14 07:00N 39°52' W 075°13'5 9.3
2018-Apr-14 06:30N 39°55' W 075°08'4 7.8
2018-Apr-14 06:01N 39°59' W 075°06'0 0.2
2018-Apr-14 05:31N 39°58' W 075°06'3 6.8
2018-Apr-14 05:00N 39°56' W 075°08'3 5.7
2018-Apr-14 04:30N 39°53' W 075°10'3 6.6
2018-Apr-14 03:59N 39°52' W 075°14'612.1
2018-Apr-14 03:30N 39°50' W 075°21'713.5
2018-Apr-14 03:00N 39°46' W 075°28'4 7.9
2018-Apr-14 02:30N 39°43' W 075°31'0 0.0
2018-Apr-14 02:00N 39°43' W 075°31'0 0.0
2018-Apr-14 01:30N 39°43' W 075°31'0 0.0
2018-Apr-14 01:01N 39°43' W 075°31'0 0.0
2018-Apr-14 00:30N 39°43' W 075°31'0 0.0
2018-Apr-14 00:01N 39°43' W 075°31'0 0.0
2018-Apr-13 23:30N 39°43' W 075°31'0 0.0
2018-Apr-13 23:00N 39°43' W 075°31'0 0.0
2018-Apr-13 22:30N 39°43' W 075°31'0 0.0
2018-Apr-13 21:59N 39°43' W 075°31'0 0.0
2018-Apr-13 21:30N 39°43' W 075°31'0 0.0
2018-Apr-13 21:00N 39°43' W 075°31'0 0.0
2018-Apr-13 20:30N 39°43' W 075°31'0 0.0
2018-Apr-13 20:00N 39°43' W 075°31'0 0.0
2018-Apr-13 19:30N 39°43' W 075°31'0 0.0
2018-Apr-13 19:00N 39°43' W 075°31'0 0.0
2018-Apr-13 18:30N 39°43' W 075°31'0 0.0
2018-Apr-13 18:00N 39°43' W 075°31'0 0.0
2018-Apr-13 17:30N 39°43' W 075°31'0 0.0
2018-Apr-13 17:00N 39°43' W 075°31'0 0.8
2018-Apr-13 16:30N 39°43' W 075°31'1 2.0
2018-Apr-13 16:00N 39°44' W 075°30'0 0.5
2018-Apr-13 15:30N 39°44' W 075°30'0 0.9
2018-Apr-13 15:00N 39°45' W 075°30'5 9.5
2018-Apr-13 14:31N 39°48' W 075°26'0 0.0
2018-Apr-13 14:00N 39°48' W 075°26'0 0.0
2018-Apr-13 13:30N 39°48' W 075°26'0 0.0
2018-Apr-13 13:00N 39°48' W 075°26'1 2.9
2018-Apr-13 12:30N 39°49' W 075°24'0 0.5
2018-Apr-13 12:00N 39°49' W 075°24'0 0.0
2018-Apr-13 11:30N 39°49' W 075°24'1 2.5
2018-Apr-13 11:00N 39°48' W 075°26'0 0.0
2018-Apr-13 10:30N 39°48' W 075°26'0 0.0
2018-Apr-13 10:00N 39°48' W 075°26'0 0.0
2018-Apr-13 09:30N 39°48' W 075°26'0 0.0
2018-Apr-13 08:59N 39°48' W 075°26'0 0.0
2018-Apr-13 08:30N 39°48' W 075°26'0 0.0
2018-Apr-13 08:00N 39°48' W 075°26'0 0.0
2018-Apr-13 07:30N 39°48' W 075°26'0 0.0
2018-Apr-13 07:00N 39°48' W 075°26'0 0.0
2018-Apr-13 06:30N 39°48' W 075°26'0 0.0
2018-Apr-13 06:00N 39°48' W 075°26'5 9.5
2018-Apr-13 05:30N 39°51' W 075°21'0 0.8
2018-Apr-13 05:00N 39°51' W 075°20'3 6.3
2018-Apr-13 04:30N 39°51' W 075°16'4 9.0
2018-Apr-13 04:00N 39°53' W 075°11'0 0.0
2018-Apr-13 03:30N 39°53' W 075°11'0 0.0
2018-Apr-13 03:00N 39°53' W 075°11'0 0.0
2018-Apr-13 02:30N 39°53' W 075°11'0 0.0
2018-Apr-13 02:00N 39°53' W 075°11'0 0.0
2018-Apr-13 01:30N 39°53' W 075°11'0 0.0
2018-Apr-13 01:00N 39°53' W 075°11'0 0.0
2018-Apr-13 00:30N 39°53' W 075°11'0 0.0
2018-Apr-13 00:00N 39°53' W 075°11'2 4.9
2018-Apr-12 23:30N 39°52' W 075°14'2 3.6
2018-Apr-12 22:59N 39°51' W 075°16'0 0.1
2018-Apr-12 22:31N 39°51' W 075°16'3 5.8
2018-Apr-12 22:00N 39°51' W 075°20'3 5.6
2018-Apr-12 21:30N 39°51' W 075°16'0 0.6
2018-Apr-12 21:00N 39°51' W 075°16'0 0.0
2018-Apr-12 20:30N 39°51' W 075°16'0 0.0
2018-Apr-12 20:00N 39°51' W 075°16'0 0.0
2018-Apr-12 19:30N 39°51' W 075°16'0 0.5
2018-Apr-12 19:00N 39°51' W 075°16'0 0.2
2018-Apr-12 18:30N 39°51' W 075°16'0 0.0
2018-Apr-12 18:00N 39°51' W 075°16'0 0.1
2018-Apr-12 17:30N 39°51' W 075°16'2 3.2
2018-Apr-12 17:00N 39°51' W 075°18'0 0.8
2018-Apr-12 16:30N 39°51' W 075°18'2 3.2
2018-Apr-12 16:00N 39°51' W 075°16'0 0.0
2018-Apr-12 15:29N 39°51' W 075°16'0 0.0
2018-Apr-12 15:00N 39°51' W 075°16'0 0.0
2018-Apr-12 14:30N 39°51' W 075°16'0 0.0
2018-Apr-12 14:00N 39°51' W 075°16'0 0.0
2018-Apr-12 13:30N 39°51' W 075°16'0 0.0
2018-Apr-12 13:00N 39°51' W 075°16'0 0.0
2018-Apr-12 12:30N 39°51' W 075°16'0 0.0
2018-Apr-12 11:59N 39°51' W 075°16'0 0.0
2018-Apr-12 11:27N 39°51' W 075°16'0 0.0
2018-Apr-12 11:00N 39°51' W 075°16'0 0.0
2018-Apr-12 10:30N 39°51' W 075°16'0 0.0
2018-Apr-12 10:00N 39°51' W 075°16'0 0.0
2018-Apr-12 09:27N 39°51' W 075°16'0 0.0
2018-Apr-12 08:58N 39°51' W 075°16'0 0.0
2018-Apr-12 08:30N 39°51' W 075°16'0 0.0
2018-Apr-12 08:00N 39°51' W 075°16'0 0.0
2018-Apr-12 07:30N 39°51' W 075°16'3 5.4
2018-Apr-12 07:00N 39°51' W 075°19'1 1.7
2018-Apr-12 06:30N 39°51' W 075°20'3 5.2
2018-Apr-12 06:00N 39°51' W 075°17'3 7.0
2018-Apr-12 05:30N 39°52' W 075°13'4 8.4
2018-Apr-12 05:00N 39°54' W 075°08'1 1.6
2018-Apr-12 04:30N 39°55' W 075°08'0 0.0
2018-Apr-12 04:01N 39°55' W 075°08'1 1.8
2018-Apr-12 03:29N 39°54' W 075°08'3 5.3
2018-Apr-12 03:00N 39°53' W 075°11'0 0.0
2018-Apr-12 02:30N 39°53' W 075°11'0 0.0
2018-Apr-12 02:00N 39°53' W 075°11'0 0.0
2018-Apr-12 01:30N 39°53' W 075°11'0 0.0
2018-Apr-12 00:59N 39°53' W 075°11'0 0.0
2018-Apr-12 00:29N 39°53' W 075°11'0 0.0
2018-Apr-11 23:59N 39°53' W 075°11'0 0.0
2018-Apr-11 23:28N 39°53' W 075°11'0 0.0
2018-Apr-11 23:00N 39°53' W 075°11'0 0.0
2018-Apr-11 22:30N 39°53' W 075°11'3 5.5
2018-Apr-11 22:00N 39°52' W 075°14'2 3.3
2018-Apr-11 21:30N 39°51' W 075°16'1 2.5
2018-Apr-11 21:00N 39°51' W 075°14'2 3.2
2018-Apr-11 20:31N 39°52' W 075°13'4 8.0
2018-Apr-11 20:00N 39°54' W 075°08'4 8.7
2018-Apr-11 19:30N 39°58' W 075°07'2 3.8
2018-Apr-11 19:00N 39°59' W 075°04'1 1.9
2018-Apr-11 18:30N 39°59' W 075°06'0 0.0
2018-Apr-11 18:00N 39°59' W 075°06'0 0.0
2018-Apr-11 17:30N 39°59' W 075°06'0 0.0
2018-Apr-11 17:00N 39°59' W 075°06'0 0.0
2018-Apr-11 16:30N 39°59' W 075°06'0 0.1
2018-Apr-11 16:00N 39°59' W 075°06'1 1.2
2018-Apr-11 15:30N 39°58' W 075°06'2 3.9
2018-Apr-11 15:00N 39°57' W 075°08'2 4.9
2018-Apr-11 14:30N 39°59' W 075°06'0 0.1
2018-Apr-11 14:00N 39°59' W 075°06'3 5.1
2018-Apr-11 13:30N 39°57' W 075°08'4 8.2
2018-Apr-11 13:00N 39°53' W 075°09'2 3.4
2018-Apr-11 12:30N 39°53' W 075°11'0 0.0
2018-Apr-11 12:00N 39°53' W 075°11'0 0.0
2018-Apr-11 11:29N 39°53' W 075°11'0 0.0
2018-Apr-11 10:59N 39°53' W 075°11'0 0.0
2018-Apr-11 10:30N 39°53' W 075°11'0 0.0
2018-Apr-11 10:00N 39°53' W 075°11'0 0.0
2018-Apr-11 09:30N 39°53' W 075°11'0 0.0
2018-Apr-11 09:00N 39°53' W 075°11'0 0.0
2018-Apr-11 08:30N 39°53' W 075°11'0 0.0
2018-Apr-11 08:00N 39°53' W 075°11'0 0.0
2018-Apr-11 07:30N 39°53' W 075°11'0 0.0
2018-Apr-11 07:00N 39°53' W 075°11'0 0.0
2018-Apr-11 06:30N 39°53' W 075°11'0 0.0
2018-Apr-11 06:00N 39°53' W 075°11'0 0.0
2018-Apr-11 05:30N 39°53' W 075°11'0 0.0
2018-Apr-11 05:00N 39°53' W 075°11'0 0.0
2018-Apr-11 04:30N 39°53' W 075°11'  
Track history (hours):
 
Tides and Currents Weather Stations Pressure Air Temp Water Temp Dewpoint Dewpoint Depression Visibility Wind Speed Wind Dir Waves Ship Positions

Madeline

Owner: TUG MADELINE, LLC, NEW CASTLE, DE. More information available from US FCC via Universal Licensing System and Coast Guard Vessel Documentation Center.

Last reported at 2018-Apr-21 04:00 UTC. Time now 2018-Apr-21 04:10 UTC.
Position N 39°53' W 075°11'.

Length 23 m; draft 4.6 m.

Type: Tug. MMSI: 367335830.

Date/timePositionNaut miles runAvg speedWind from/ knotsBaromVisibWave heightAir tempDewpointWater temp
2018-Apr-21 04:00N 39°53' W 075°11'0 0.0
2018-Apr-21 03:31N 39°53' W 075°11'0 0.0
2018-Apr-21 03:00N 39°53' W 075°11'0 0.0
2018-Apr-21 02:31N 39°53' W 075°11'0 0.0
2018-Apr-21 02:01N 39°53' W 075°11'0 0.0
2018-Apr-21 01:30N 39°53' W 075°11'3 5.4
2018-Apr-21 01:01N 39°52' W 075°14'2 3.0
2018-Apr-21 00:31N 39°52' W 075°12'1 2.3
2018-Apr-21 00:01N 39°53' W 075°11'0 0.0
2018-Apr-20 23:31N 39°53' W 075°11'0 0.0
2018-Apr-20 23:01N 39°53' W 075°11'0 0.0
2018-Apr-20 22:30N 39°53' W 075°11'0 0.0
2018-Apr-20 22:00N 39°53' W 075°11'0 0.0
2018-Apr-20 21:31N 39°53' W 075°11'0 0.0
2018-Apr-20 21:00N 39°53' W 075°11'0 0.0
2018-Apr-20 20:30N 39°53' W 075°11'0 0.0
2018-Apr-20 20:00N 39°53' W 075°11'0 0.0
2018-Apr-20 19:31N 39°53' W 075°11'0 0.0
2018-Apr-20 19:00N 39°53' W 075°11'0 0.0
2018-Apr-20 18:30N 39°53' W 075°11'0 0.0
2018-Apr-20 18:01N 39°53' W 075°11'0 0.0
2018-Apr-20 17:31N 39°53' W 075°11'0 0.0
2018-Apr-20 17:00N 39°53' W 075°11'0 0.0
2018-Apr-20 16:30N 39°53' W 075°11'0 0.0
2018-Apr-20 16:00N 39°53' W 075°11'1 1.1
2018-Apr-20 15:30N 39°53' W 075°12'0 0.0
2018-Apr-20 15:00N 39°53' W 075°12'0 0.0
2018-Apr-20 14:30N 39°53' W 075°12'0 0.0
2018-Apr-20 14:00N 39°53' W 075°12'3 5.2
2018-Apr-20 13:30N 39°52' W 075°14'1 3.0
2018-Apr-20 13:00N 39°51' W 075°16'0 0.0
2018-Apr-20 12:30N 39°51' W 075°16'0 0.0
2018-Apr-20 11:59N 39°51' W 075°16'0 0.0
2018-Apr-20 11:30N 39°51' W 075°16'0 0.0
2018-Apr-20 10:58N 39°51' W 075°16'0 0.0
2018-Apr-20 10:30N 39°51' W 075°16'0 0.0
2018-Apr-20 10:00N 39°51' W 075°16'0 0.0
2018-Apr-20 09:30N 39°51' W 075°16'1 1.1
2018-Apr-20 08:59N 39°51' W 075°15'1 1.2
2018-Apr-20 08:30N 39°51' W 075°16'0 0.0
2018-Apr-20 08:00N 39°51' W 075°16'2 3.4
2018-Apr-20 07:31N 39°51' W 075°14'3 5.2
2018-Apr-20 07:00N 39°53' W 075°11'0 0.0
2018-Apr-20 06:30N 39°53' W 075°11'0 0.0
2018-Apr-20 06:00N 39°53' W 075°11'0 0.0
2018-Apr-20 05:30N 39°53' W 075°11'0 0.0
2018-Apr-20 05:00N 39°53' W 075°11'0 0.0
2018-Apr-20 04:30N 39°53' W 075°11'0 0.0
2018-Apr-20 04:00N 39°53' W 075°11'0 0.0
2018-Apr-20 03:30N 39°53' W 075°11'0 0.0
2018-Apr-20 03:01N 39°53' W 075°11'0 0.0
2018-Apr-20 02:31N 39°53' W 075°11'0 0.0
2018-Apr-20 02:00N 39°53' W 075°11'0 0.0
2018-Apr-20 01:31N 39°53' W 075°11'0 0.0
2018-Apr-20 01:00N 39°53' W 075°11'0 0.0
2018-Apr-20 00:31N 39°53' W 075°11'0 0.0
2018-Apr-20 00:00N 39°53' W 075°11'0 0.0
2018-Apr-19 23:19N 39°53' W 075°11'0 0.0
2018-Apr-19 23:00N 39°53' W 075°11'0 0.0
2018-Apr-19 22:30N 39°53' W 075°11'0 0.0
2018-Apr-19 22:00N 39°53' W 075°11'2 3.0
2018-Apr-19 21:30N 39°52' W 075°13'0 0.9
2018-Apr-19 21:01N 39°52' W 075°13'0 0.0
2018-Apr-19 20:30N 39°52' W 075°13'0 0.0
2018-Apr-19 20:00N 39°52' W 075°13'0 0.5
2018-Apr-19 19:30N 39°52' W 075°13'2 3.9
2018-Apr-19 19:00N 39°51' W 075°15'2 4.0
2018-Apr-19 18:30N 39°52' W 075°13'2 3.4
2018-Apr-19 18:00N 39°53' W 075°11'0 0.1
2018-Apr-19 17:31N 39°53' W 075°11'0 0.0
2018-Apr-19 17:01N 39°53' W 075°11'0 0.0
2018-Apr-19 16:30N 39°53' W 075°11'0 0.1
2018-Apr-19 16:00N 39°53' W 075°11'0 0.0
2018-Apr-19 15:30N 39°53' W 075°11'0 0.0
2018-Apr-19 15:00N 39°53' W 075°11'0 0.0
2018-Apr-19 14:30N 39°53' W 075°11'0 0.0
2018-Apr-19 14:00N 39°53' W 075°11'0 0.0
2018-Apr-19 13:30N 39°53' W 075°11'0 0.0
2018-Apr-19 13:00N 39°53' W 075°11'0 0.0
2018-Apr-19 12:30N 39°53' W 075°11'0 0.0
2018-Apr-19 12:00N 39°53' W 075°11'0 0.0
2018-Apr-19 11:30N 39°53' W 075°11'0 0.0
2018-Apr-19 11:00N 39°53' W 075°11'1 2.2
2018-Apr-19 10:30N 39°53' W 075°10'2 3.4
2018-Apr-19 10:01N 39°54' W 075°08'0 0.0
2018-Apr-19 09:30N 39°54' W 075°08'0 0.8
2018-Apr-19 09:01N 39°54' W 075°08'0 0.8
2018-Apr-19 08:30N 39°55' W 075°08'1 1.4
2018-Apr-19 08:00N 39°54' W 075°08'0 0.0
2018-Apr-19 07:30N 39°54' W 075°08'2 3.7
2018-Apr-19 07:01N 39°53' W 075°10'510.7
2018-Apr-19 06:30N 39°51' W 075°16'3 6.5
2018-Apr-19 06:01N 39°51' W 075°20'1 1.8
2018-Apr-19 05:30N 39°51' W 075°19'3 5.3
2018-Apr-19 05:00N 39°51' W 075°16'0 0.0
2018-Apr-19 04:30N 39°51' W 075°16'0 0.0
2018-Apr-19 04:00N 39°51' W 075°16'0 0.0
2018-Apr-19 03:30N 39°51' W 075°16'0 0.0
2018-Apr-19 03:00N 39°51' W 075°16'0 0.0
2018-Apr-19 02:31N 39°51' W 075°16'0 0.0
2018-Apr-19 02:00N 39°51' W 075°16'0 0.0
2018-Apr-19 01:30N 39°51' W 075°16'0 0.0
2018-Apr-19 01:00N 39°51' W 075°16'0 0.0
2018-Apr-19 00:30N 39°51' W 075°16'0 0.0
2018-Apr-19 00:01N 39°51' W 075°16'0 0.0
2018-Apr-18 23:31N 39°51' W 075°16'0 0.0
2018-Apr-18 23:00N 39°51' W 075°16'1 2.7
2018-Apr-18 22:30N 39°51' W 075°17'4 7.3
2018-Apr-18 22:01N 39°52' W 075°13'3 5.6
2018-Apr-18 21:31N 39°53' W 075°09'0 0.0
2018-Apr-18 21:00N 39°53' W 075°10'1 1.5
2018-Apr-18 20:31N 39°53' W 075°10'1 2.0
2018-Apr-18 20:00N 39°53' W 075°12'1 1.1
2018-Apr-18 19:30N 39°54' W 075°12'0 0.6
2018-Apr-18 19:01N 39°54' W 075°12'1 1.9
2018-Apr-18 18:30N 39°53' W 075°12'1 2.6
2018-Apr-18 18:00N 39°52' W 075°13'612.2
2018-Apr-18 17:30N 39°51' W 075°21'713.5
2018-Apr-18 17:00N 39°47' W 075°28'4 8.9
2018-Apr-18 16:30N 39°43' W 075°31'0 0.0
2018-Apr-18 16:00N 39°43' W 075°31'0 0.0
2018-Apr-18 15:30N 39°43' W 075°31'0 0.3
2018-Apr-18 15:01N 39°43' W 075°31'0 0.7
2018-Apr-18 14:30N 39°43' W 075°31'1 2.3
2018-Apr-18 14:00N 39°42' W 075°31'0 0.2
2018-Apr-18 13:30N 39°42' W 075°31'1 2.3
2018-Apr-18 13:00N 39°43' W 075°31'0 0.0
2018-Apr-18 12:30N 39°43' W 075°31'0 0.0
2018-Apr-18 12:00N 39°43' W 075°31'0 0.0
2018-Apr-18 11:30N 39°43' W 075°31'0 0.0
2018-Apr-18 11:00N 39°43' W 075°31'0 0.0
2018-Apr-18 10:30N 39°43' W 075°31'0 0.0
2018-Apr-18 10:00N 39°43' W 075°31'4 8.8
2018-Apr-18 09:30N 39°39' W 075°34'4 8.6
2018-Apr-18 09:00N 39°35' W 075°35'0 0.1
2018-Apr-18 08:30N 39°35' W 075°35'0 0.0
2018-Apr-18 08:00N 39°35' W 075°35'0 0.0
2018-Apr-18 07:30N 39°35' W 075°35'1 2.7
2018-Apr-18 07:00N 39°34' W 075°34'1 1.2
2018-Apr-18 06:30N 39°34' W 075°33'0 0.3
2018-Apr-18 06:01N 39°34' W 075°33'2 3.7
2018-Apr-18 05:30N 39°35' W 075°35'0 0.0
2018-Apr-18 05:00N 39°35' W 075°35'0 0.0
2018-Apr-18 04:30N 39°35' W 075°35'0 0.0
2018-Apr-18 04:00N 39°35' W 075°35'0 0.0
2018-Apr-18 03:30N 39°35' W 075°35'0 0.0
2018-Apr-18 03:00N 39°35' W 075°35'0 0.0
2018-Apr-18 02:30N 39°35' W 075°35'0 0.0
2018-Apr-18 02:00N 39°35' W 075°35'1 2.0
2018-Apr-18 01:31N 39°34' W 075°34'1 2.0
2018-Apr-18 01:00N 39°35' W 075°35'0 0.0
2018-Apr-18 00:30N 39°35' W 075°35'0 0.7
2018-Apr-18 00:00N 39°35' W 075°35'5 9.6
2018-Apr-17 23:30N 39°30' W 075°33'510.2
2018-Apr-17 23:00N 39°25' W 075°31'510.0
2018-Apr-17 22:30N 39°22' W 075°27'510.5
2018-Apr-17 22:00N 39°18' W 075°22'510.4
2018-Apr-17 21:31N 39°14' W 075°18'510.6
2018-Apr-17 21:00N 39°09' W 075°15'6 1.1
2018-Apr-17 15:25N 39°03' W 075°14'5 8.0
2018-Apr-17 14:46N 39°08' W 075°14'3 9.5
2018-Apr-17 14:27N 39°11' W 075°16'4 8.6
2018-Apr-17 14:00N 39°14' W 075°19'5 9.5
2018-Apr-17 13:30N 39°18' W 075°22'510.5
2018-Apr-17 13:00N 39°22' W 075°27'611.4
2018-Apr-17 12:30N 39°26' W 075°32'510.8
2018-Apr-17 12:00N 39°31' W 075°33'612.0
2018-Apr-17 11:30N 39°37' W 075°35'511.1
2018-Apr-17 11:00N 39°42' W 075°31'915.9
2018-Apr-17 10:28N 39°49' W 075°24'511.4
2018-Apr-17 10:00N 39°51' W 075°18'1 2.5
2018-Apr-17 09:29N 39°51' W 075°16'0 0.0
2018-Apr-17 08:57N 39°51' W 075°16'0 1.0
2018-Apr-17 08:30N 39°51' W 075°17'2 4.1
2018-Apr-17 08:00N 39°51' W 075°19'2 4.9
2018-Apr-17 07:29N 39°51' W 075°16'0 0.0
2018-Apr-17 07:01N 39°51' W 075°16'0 0.1
2018-Apr-17 06:28N 39°51' W 075°16'0 0.1
2018-Apr-17 06:00N 39°51' W 075°16'3 5.4
2018-Apr-17 05:30N 39°52' W 075°13'2 3.8
2018-Apr-17 05:01N 39°53' W 075°11'0 0.0
2018-Apr-17 04:31N 39°53' W 075°11'0 0.0
2018-Apr-17 03:57N 39°53' W 075°11'0 0.0
2018-Apr-17 03:30N 39°53' W 075°11'0 0.0
2018-Apr-17 03:00N 39°53' W 075°11'0 0.0
2018-Apr-17 02:30N 39°53' W 075°11'0 0.0
2018-Apr-17 02:00N 39°53' W 075°11'0 0.0
2018-Apr-17 01:30N 39°53' W 075°11'0 0.0
2018-Apr-17 01:00N 39°53' W 075°11'0 0.0
2018-Apr-17 00:30N 39°53' W 075°11'0 0.0
2018-Apr-17 00:00N 39°53' W 075°11'0 0.0
2018-Apr-16 23:31N 39°53' W 075°11'0 0.0
2018-Apr-16 23:00N 39°53' W 075°11'0 0.0
2018-Apr-16 22:30N 39°53' W 075°11'0 0.0
2018-Apr-16 22:00N 39°53' W 075°11'0 0.0
2018-Apr-16 21:30N 39°53' W 075°11'0 0.0
2018-Apr-16 21:00N 39°53' W 075°11'1 2.2
2018-Apr-16 20:31N 39°54' W 075°12'0 0.0
2018-Apr-16 20:00N 39°54' W 075°12'1 2.2
2018-Apr-16 19:30N 39°53' W 075°12'0 0.5
2018-Apr-16 19:00N 39°53' W 075°12'1 1.7
2018-Apr-16 18:30N 39°53' W 075°12'0 0.9
2018-Apr-16 18:00N 39°53' W 075°11'0 0.0
2018-Apr-16 17:30N 39°53' W 075°11'0 0.0
2018-Apr-16 17:00N 39°53' W 075°11'0 0.0
2018-Apr-16 16:31N 39°53' W 075°11'0 0.0
2018-Apr-16 16:01N 39°53' W 075°11'0 0.0
2018-Apr-16 15:30N 39°53' W 075°11'0 0.0
2018-Apr-16 15:01N 39°53' W 075°11'0 0.0
2018-Apr-16 14:30N 39°53' W 075°11'0 0.0
2018-Apr-16 14:00N 39°53' W 075°11'0 0.0
2018-Apr-16 13:31N 39°53' W 075°11'4 7.5
2018-Apr-16 13:00N 39°56' W 075°08'3 6.8
2018-Apr-16 12:30N 39°59' W 075°05'0 0.4
2018-Apr-16 12:00N 39°59' W 075°05'1 2.3
2018-Apr-16 11:30N 39°58' W 075°06'3 6.5
2018-Apr-16 11:00N 39°56' W 075°08'3 6.4
2018-Apr-16 10:31N 39°53' W 075°10'5 9.5
2018-Apr-16 10:00N 39°51' W 075°16'0 0.1
2018-Apr-16 09:30N 39°51' W 075°16'0 0.0
2018-Apr-16 09:00N 39°51' W 075°16'0 0.2
2018-Apr-16 08:30N 39°51' W 075°16'1 2.6
2018-Apr-16 08:00N 39°51' W 075°18'1 1.7
2018-Apr-16 07:30N 39°51' W 075°19'2 4.8
2018-Apr-16 07:01N 39°51' W 075°16'4 7.5
2018-Apr-16 06:30N 39°53' W 075°12'1 1.1
2018-Apr-16 06:00N 39°53' W 075°11'0 0.0
2018-Apr-16 05:30N 39°53' W 075°11'0 0.0
2018-Apr-16 05:00N 39°53' W 075°11'0 0.0
2018-Apr-16 04:30N 39°53' W 075°11'0 0.0
2018-Apr-16 04:00N 39°53' W 075°11'0 0.0
2018-Apr-16 03:30N 39°53' W 075°11'0 0.0
2018-Apr-16 03:00N 39°53' W 075°11'0 0.0
2018-Apr-16 02:30N 39°53' W 075°11'0 0.0
2018-Apr-16 02:00N 39°53' W 075°11'0 0.0
2018-Apr-16 01:30N 39°53' W 075°11'0 0.0
2018-Apr-16 00:59N 39°53' W 075°11'0 0.0
2018-Apr-16 00:30N 39°53' W 075°11'0 0.0
2018-Apr-16 00:00N 39°53' W 075°11'0 0.0
2018-Apr-15 23:30N 39°53' W 075°11'0 0.0
2018-Apr-15 23:00N 39°53' W 075°11'0 0.0
2018-Apr-15 22:30N 39°53' W 075°11'3 5.8
2018-Apr-15 22:00N 39°55' W 075°08'3 6.6
2018-Apr-15 21:30N 39°58' W 075°07'4 7.6
2018-Apr-15 21:00N 39°54' W 075°08'3 5.2
2018-Apr-15 20:30N 39°53' W 075°11'0 0.0
2018-Apr-15 20:00N 39°53' W 075°11'0 0.0
2018-Apr-15 19:30N 39°53' W 075°11'0 0.0
2018-Apr-15 19:00N 39°53' W 075°11'0 0.0
2018-Apr-15 18:30N 39°53' W 075°11'0 0.0
2018-Apr-15 18:01N 39°53' W 075°11'0 0.0
2018-Apr-15 17:30N 39°53' W 075°11'0 0.0
2018-Apr-15 17:00N 39°53' W 075°11'0 0.0
2018-Apr-15 16:30N 39°53' W 075°11'0 0.0
2018-Apr-15 16:00N 39°53' W 075°11'0 0.0
2018-Apr-15 15:30N 39°53' W 075°11'0 0.0
2018-Apr-15 15:00N 39°53' W 075°11'0 0.0
2018-Apr-15 14:30N 39°53' W 075°11'0 0.0
2018-Apr-15 14:00N 39°53' W 075°11'0 0.0
2018-Apr-15 13:30N 39°53' W 075°11'0 0.0
2018-Apr-15 13:00N 39°53' W 075°11'0 0.0
2018-Apr-15 12:29N 39°53' W 075°11'0 0.0
2018-Apr-15 12:00N 39°53' W 075°11'0 0.0
2018-Apr-15 11:31N 39°53' W 075°11'0 0.0
2018-Apr-15 11:01N 39°53' W 075°11'0 0.0
2018-Apr-15 10:31N 39°53' W 075°11'0 0.0
2018-Apr-15 10:00N 39°53' W 075°11'0 0.0
2018-Apr-15 09:30N 39°53' W 075°11'0 0.0
2018-Apr-15 09:00N 39°53' W 075°11'2 4.7
2018-Apr-15 08:30N 39°54' W 075°08'510.1
2018-Apr-15 08:00N 39°58' W 075°06'1 1.2
2018-Apr-15 07:30N 39°59' W 075°05'1 1.1
2018-Apr-15 07:00N 39°59' W 075°06'0 0.4
2018-Apr-15 06:31N 39°59' W 075°06'1 1.5
2018-Apr-15 06:00N 39°59' W 075°05'0 0.0
2018-Apr-15 05:30N 39°59' W 075°05'0 0.0
2018-Apr-15 05:00N 39°59' W 075°05'0 0.0
2018-Apr-15 04:30N 39°59' W 075°05'0 0.0
2018-Apr-15 04:00N 39°59' W 075°05'0 0.0
2018-Apr-15 03:30N 39°59' W 075°05'0 0.0
2018-Apr-15 03:01N 39°59' W 075°05'4 8.2
2018-Apr-15 02:30N 39°55' W 075°08'5 9.3
2018-Apr-15 02:00N 39°52' W 075°13'3 6.4
2018-Apr-15 01:30N 39°51' W 075°16'0 0.2
2018-Apr-15 01:00N 39°51' W 075°16'0 0.7
2018-Apr-15 00:30N 39°51' W 075°16'0 0.0
2018-Apr-15 00:01N 39°51' W 075°16'0 0.0
2018-Apr-14 23:31N 39°51' W 075°16'0 0.0
2018-Apr-14 23:00N 39°51' W 075°16'0 0.0
2018-Apr-14 22:30N 39°51' W 075°16'0 0.0
2018-Apr-14 22:00N 39°51' W 075°16'0 0.0
2018-Apr-14 21:30N 39°51' W 075°16'0 0.0
2018-Apr-14 20:59N 39°51' W 075°16'0 0.0
2018-Apr-14 20:30N 39°51' W 075°16'0 0.0
2018-Apr-14 20:00N 39°51' W 075°16'0 0.0
2018-Apr-14 19:30N 39°51' W 075°16'0 0.0
2018-Apr-14 19:00N 39°51' W 075°16'0 0.0
2018-Apr-14 18:30N 39°51' W 075°16'0 0.0
2018-Apr-14 18:00N 39°51' W 075°16'0 0.0
2018-Apr-14 17:30N 39°51' W 075°16'0 0.0
2018-Apr-14 17:00N 39°51' W 075°16'0 0.0
2018-Apr-14 16:30N 39°51' W 075°16'0 0.0
2018-Apr-14 16:00N 39°51' W 075°16'0 0.0
2018-Apr-14 15:30N 39°51' W 075°16'0 0.0
2018-Apr-14 15:00N 39°51' W 075°16'0 0.0
2018-Apr-14 14:30N 39°51' W 075°16'0 0.0
2018-Apr-14 14:00N 39°51' W 075°16'0 0.0
2018-Apr-14 13:30N 39°51' W 075°16'0 0.0
2018-Apr-14 13:00N 39°51' W 075°16'0 0.0
2018-Apr-14 12:30N 39°51' W 075°16'0 0.0
2018-Apr-14 12:00N 39°51' W 075°16'0 0.0
2018-Apr-14 11:30N 39°51' W 075°16'0 0.0
2018-Apr-14 11:00N 39°51' W 075°16'0 0.0
2018-Apr-14 10:30N 39°51' W 075°16'0 0.0
2018-Apr-14 10:00N 39°51' W 075°16'0 0.0
2018-Apr-14 09:30N 39°51' W 075°16'0 0.0
2018-Apr-14 09:01N 39°51' W 075°16'0 0.4
2018-Apr-14 08:30N 39°51' W 075°16'0 0.1
2018-Apr-14 08:01N 39°51' W 075°16'2 3.2
2018-Apr-14 07:30N 39°52' W 075°14'1 2.3
2018-Apr-14 07:00N 39°52' W 075°13'5 9.3
2018-Apr-14 06:30N 39°55' W 075°08'4 7.8
2018-Apr-14 06:01N 39°59' W 075°06'0 0.2
2018-Apr-14 05:31N 39°58' W 075°06'3 6.8
2018-Apr-14 05:00N 39°56' W 075°08'3 5.7
2018-Apr-14 04:30N 39°53' W 075°10'3 6.6
2018-Apr-14 03:59N 39°52' W 075°14'612.1
2018-Apr-14 03:30N 39°50' W 075°21'713.5
2018-Apr-14 03:00N 39°46' W 075°28'4 7.9
2018-Apr-14 02:30N 39°43' W 075°31'0 0.0
2018-Apr-14 02:00N 39°43' W 075°31'0 0.0
2018-Apr-14 01:30N 39°43' W 075°31'0 0.0
2018-Apr-14 01:01N 39°43' W 075°31'0 0.0
2018-Apr-14 00:30N 39°43' W 075°31'0 0.0
2018-Apr-14 00:01N 39°43' W 075°31'0 0.0
2018-Apr-13 23:30N 39°43' W 075°31'0 0.0
2018-Apr-13 23:00N 39°43' W 075°31'0 0.0
2018-Apr-13 22:30N 39°43' W 075°31'0 0.0
2018-Apr-13 21:59N 39°43' W 075°31'0 0.0
2018-Apr-13 21:30N 39°43' W 075°31'0 0.0
2018-Apr-13 21:00N 39°43' W 075°31'0 0.0
2018-Apr-13 20:30N 39°43' W 075°31'0 0.0
2018-Apr-13 20:00N 39°43' W 075°31'0 0.0
2018-Apr-13 19:30N 39°43' W 075°31'0 0.0
2018-Apr-13 19:00N 39°43' W 075°31'0 0.0
2018-Apr-13 18:30N 39°43' W 075°31'0 0.0
2018-Apr-13 18:00N 39°43' W 075°31'0 0.0
2018-Apr-13 17:30N 39°43' W 075°31'0 0.0
2018-Apr-13 17:00N 39°43' W 075°31'0 0.8
2018-Apr-13 16:30N 39°43' W 075°31'1 2.0
2018-Apr-13 16:00N 39°44' W 075°30'0 0.5
2018-Apr-13 15:30N 39°44' W 075°30'0 0.9
2018-Apr-13 15:00N 39°45' W 075°30'5 9.5
2018-Apr-13 14:31N 39°48' W 075°26'0 0.0
2018-Apr-13 14:00N 39°48' W 075°26'0 0.0
2018-Apr-13 13:30N 39°48' W 075°26'0 0.0
2018-Apr-13 13:00N 39°48' W 075°26'1 2.9
2018-Apr-13 12:30N 39°49' W 075°24'0 0.5
2018-Apr-13 12:00N 39°49' W 075°24'0 0.0
2018-Apr-13 11:30N 39°49' W 075°24'1 2.5
2018-Apr-13 11:00N 39°48' W 075°26'0 0.0
2018-Apr-13 10:30N 39°48' W 075°26'0 0.0
2018-Apr-13 10:00N 39°48' W 075°26'0 0.0
2018-Apr-13 09:30N 39°48' W 075°26'0 0.0
2018-Apr-13 08:59N 39°48' W 075°26'0 0.0
2018-Apr-13 08:30N 39°48' W 075°26'0 0.0
2018-Apr-13 08:00N 39°48' W 075°26'0 0.0
2018-Apr-13 07:30N 39°48' W 075°26'0 0.0
2018-Apr-13 07:00N 39°48' W 075°26'0 0.0
2018-Apr-13 06:30N 39°48' W 075°26'0 0.0
2018-Apr-13 06:00N 39°48' W 075°26'5 9.5
2018-Apr-13 05:30N 39°51' W 075°21'0 0.8
2018-Apr-13 05:00N 39°51' W 075°20'3 6.3
2018-Apr-13 04:30N 39°51' W 075°16'4 9.0
2018-Apr-13 04:00N 39°53' W 075°11'0 0.0
2018-Apr-13 03:30N 39°53' W 075°11'0 0.0
2018-Apr-13 03:00N 39°53' W 075°11'0 0.0
2018-Apr-13 02:30N 39°53' W 075°11'0 0.0
2018-Apr-13 02:00N 39°53' W 075°11'0 0.0
2018-Apr-13 01:30N 39°53' W 075°11'0 0.0
2018-Apr-13 01:00N 39°53' W 075°11'0 0.0
2018-Apr-13 00:30N 39°53' W 075°11'0 0.0
2018-Apr-13 00:00N 39°53' W 075°11'2 4.9
2018-Apr-12 23:30N 39°52' W 075°14'2 3.6
2018-Apr-12 22:59N 39°51' W 075°16'0 0.1
2018-Apr-12 22:31N 39°51' W 075°16'3 5.8
2018-Apr-12 22:00N 39°51' W 075°20'3 5.6
2018-Apr-12 21:30N 39°51' W 075°16'0 0.6
2018-Apr-12 21:00N 39°51' W 075°16'0 0.0
2018-Apr-12 20:30N 39°51' W 075°16'0 0.0
2018-Apr-12 20:00N 39°51' W 075°16'0 0.0
2018-Apr-12 19:30N 39°51' W 075°16'0 0.5
2018-Apr-12 19:00N 39°51' W 075°16'0 0.2
2018-Apr-12 18:30N 39°51' W 075°16'0 0.0
2018-Apr-12 18:00N 39°51' W 075°16'0 0.1
2018-Apr-12 17:30N 39°51' W 075°16'2 3.2
2018-Apr-12 17:00N 39°51' W 075°18'0 0.8
2018-Apr-12 16:30N 39°51' W 075°18'2 3.2
2018-Apr-12 16:00N 39°51' W 075°16'0 0.0
2018-Apr-12 15:29N 39°51' W 075°16'0 0.0
2018-Apr-12 15:00N 39°51' W 075°16'0 0.0
2018-Apr-12 14:30N 39°51' W 075°16'0 0.0
2018-Apr-12 14:00N 39°51' W 075°16'0 0.0
2018-Apr-12 13:30N 39°51' W 075°16'0 0.0
2018-Apr-12 13:00N 39°51' W 075°16'0 0.0
2018-Apr-12 12:30N 39°51' W 075°16'0 0.0
2018-Apr-12 11:59N 39°51' W 075°16'0 0.0
2018-Apr-12 11:27N 39°51' W 075°16'0 0.0
2018-Apr-12 11:00N 39°51' W 075°16'0 0.0
2018-Apr-12 10:30N 39°51' W 075°16'0 0.0
2018-Apr-12 10:00N 39°51' W 075°16'0 0.0
2018-Apr-12 09:27N 39°51' W 075°16'0 0.0
2018-Apr-12 08:58N 39°51' W 075°16'0 0.0
2018-Apr-12 08:30N 39°51' W 075°16'0 0.0
2018-Apr-12 08:00N 39°51' W 075°16'0 0.0
2018-Apr-12 07:30N 39°51' W 075°16'3 5.4
2018-Apr-12 07:00N 39°51' W 075°19'1 1.7
2018-Apr-12 06:30N 39°51' W 075°20'3 5.2
2018-Apr-12 06:00N 39°51' W 075°17'3 7.0
2018-Apr-12 05:30N 39°52' W 075°13'4 8.4
2018-Apr-12 05:00N 39°54' W 075°08'1 1.6
2018-Apr-12 04:30N 39°55' W 075°08'0 0.0
2018-Apr-12 04:01N 39°55' W 075°08'1 1.8
2018-Apr-12 03:29N 39°54' W 075°08'3 5.3
2018-Apr-12 03:00N 39°53' W 075°11'0 0.0
2018-Apr-12 02:30N 39°53' W 075°11'0 0.0
2018-Apr-12 02:00N 39°53' W 075°11'0 0.0
2018-Apr-12 01:30N 39°53' W 075°11'0 0.0
2018-Apr-12 00:59N 39°53' W 075°11'0 0.0
2018-Apr-12 00:29N 39°53' W 075°11'0 0.0
2018-Apr-11 23:59N 39°53' W 075°11'0 0.0
2018-Apr-11 23:28N 39°53' W 075°11'0 0.0
2018-Apr-11 23:00N 39°53' W 075°11'0 0.0
2018-Apr-11 22:30N 39°53' W 075°11'3 5.5
2018-Apr-11 22:00N 39°52' W 075°14'2 3.3
2018-Apr-11 21:30N 39°51' W 075°16'1 2.5
2018-Apr-11 21:00N 39°51' W 075°14'2 3.2
2018-Apr-11 20:31N 39°52' W 075°13'4 8.0
2018-Apr-11 20:00N 39°54' W 075°08'4 8.7
2018-Apr-11 19:30N 39°58' W 075°07'2 3.8
2018-Apr-11 19:00N 39°59' W 075°04'1 1.9
2018-Apr-11 18:30N 39°59' W 075°06'0 0.0
2018-Apr-11 18:00N 39°59' W 075°06'0 0.0
2018-Apr-11 17:30N 39°59' W 075°06'0 0.0
2018-Apr-11 17:00N 39°59' W 075°06'0 0.0
2018-Apr-11 16:30N 39°59' W 075°06'0 0.1
2018-Apr-11 16:00N 39°59' W 075°06'1 1.2
2018-Apr-11 15:30N 39°58' W 075°06'2 3.9
2018-Apr-11 15:00N 39°57' W 075°08'2 4.9
2018-Apr-11 14:30N 39°59' W 075°06'0 0.1
2018-Apr-11 14:00N 39°59' W 075°06'3 5.1
2018-Apr-11 13:30N 39°57' W 075°08'4 8.2
2018-Apr-11 13:00N 39°53' W 075°09'2 3.4
2018-Apr-11 12:30N 39°53' W 075°11'0 0.0
2018-Apr-11 12:00N 39°53' W 075°11'0 0.0
2018-Apr-11 11:29N 39°53' W 075°11'0 0.0
2018-Apr-11 10:59N 39°53' W 075°11'0 0.0
2018-Apr-11 10:30N 39°53' W 075°11'0 0.0
2018-Apr-11 10:00N 39°53' W 075°11'0 0.0
2018-Apr-11 09:30N 39°53' W 075°11'0 0.0
2018-Apr-11 09:00N 39°53' W 075°11'0 0.0
2018-Apr-11 08:30N 39°53' W 075°11'0 0.0
2018-Apr-11 08:00N 39°53' W 075°11'0 0.0
2018-Apr-11 07:30N 39°53' W 075°11'0 0.0
2018-Apr-11 07:00N 39°53' W 075°11'0 0.0
2018-Apr-11 06:30N 39°53' W 075°11'0 0.0
2018-Apr-11 06:00N 39°53' W 075°11'0 0.0
2018-Apr-11 05:30N 39°53' W 075°11'0 0.0
2018-Apr-11 05:00N 39°53' W 075°11'0 0.0
2018-Apr-11 04:30N 39°53' W 075°11'  

Dump ship's entire track history